createdAt,value
2018-09-12T00:01:55.595Z,4.83
2018-09-12T00:04:23.419Z,4.57
2018-09-12T00:06:51.290Z,4.43
2018-09-12T00:09:19.106Z,4.93
2018-09-12T00:11:47.027Z,5.13
2018-09-12T00:14:14.847Z,4.70
2018-09-12T00:16:42.684Z,4.70
2018-09-12T00:19:10.501Z,4.40
2018-09-12T00:21:38.643Z,4.43
2018-09-12T00:24:06.472Z,5.17
2018-09-12T00:26:34.319Z,4.87
2018-09-12T00:29:02.264Z,4.87
2018-09-12T00:31:30.095Z,4.63
2018-09-12T00:33:58.148Z,4.17
2018-09-12T00:36:26.063Z,4.53
2018-09-12T00:38:53.884Z,4.10
2018-09-12T00:41:21.750Z,3.73
2018-09-12T00:43:49.830Z,4.40
2018-09-12T00:46:17.658Z,3.70
2018-09-12T00:48:45.480Z,4.40
2018-09-12T00:51:13.345Z,4.33
2018-09-12T00:53:41.224Z,4.33
2018-09-12T00:56:09.040Z,4.10
2018-09-12T00:58:36.867Z,4.30
2018-09-12T01:01:04.749Z,4.27
2018-09-12T01:03:32.594Z,3.93
2018-09-12T01:06:00.435Z,4.30
2018-09-12T01:08:28.251Z,4.63
2018-09-12T01:10:56.079Z,5.10
2018-09-12T01:13:23.920Z,4.53
2018-09-12T01:15:51.751Z,4.93
2018-09-12T01:18:20.691Z,4.80
2018-09-12T01:20:50.034Z,5.10
2018-09-12T01:23:18.093Z,4.80
2018-09-12T01:25:46.827Z,4.20
2018-09-12T01:28:14.661Z,5.00
2018-09-12T01:30:42.480Z,4.43
2018-09-12T01:33:10.303Z,4.53
2018-09-12T01:35:38.128Z,5.03
2018-09-12T01:38:05.968Z,4.53
2018-09-12T01:40:33.795Z,4.63
2018-09-12T01:43:01.642Z,4.50
2018-09-12T01:45:29.449Z,4.57
2018-09-12T01:47:57.300Z,4.87
2018-09-12T01:50:25.124Z,4.70
2018-09-12T01:52:53.023Z,4.77
2018-09-12T01:55:20.841Z,5.33
2018-09-12T01:57:49.260Z,4.57
2018-09-12T02:00:19.054Z,4.87
2018-09-12T02:02:48.010Z,4.50
2018-09-12T02:05:15.831Z,5.10
2018-09-12T02:07:43.655Z,4.40
2018-09-12T02:10:12.736Z,5.00
2018-09-12T02:12:40.597Z,4.87
2018-09-12T02:15:08.529Z,5.53
2018-09-12T02:17:36.354Z,5.13
2018-09-12T02:20:04.507Z,4.47
2018-09-12T02:22:32.646Z,5.23
2018-09-12T02:25:00.490Z,4.80
2018-09-12T02:27:28.409Z,4.97
2018-09-12T02:29:56.391Z,5.00
2018-09-12T02:32:24.272Z,4.50
2018-09-12T02:34:52.100Z,4.60
2018-09-12T02:37:19.943Z,4.73
2018-09-12T02:39:47.786Z,4.43
2018-09-12T02:42:15.652Z,5.47
2018-09-12T02:44:43.486Z,4.73
2018-09-12T02:47:16.480Z,5.10
2018-09-12T02:49:44.348Z,5.43
2018-09-12T02:52:12.195Z,5.87
2018-09-12T02:54:40.004Z,5.10
2018-09-12T02:57:07.820Z,5.50
2018-09-12T02:59:35.656Z,5.00
2018-09-12T03:02:03.559Z,4.93
2018-09-12T03:04:31.406Z,5.27
2018-09-12T03:06:59.247Z,4.90
2018-09-12T03:09:27.089Z,5.10
2018-09-12T03:11:54.943Z,5.27
2018-09-12T03:14:22.774Z,5.43
2018-09-12T03:16:50.700Z,4.97
2018-09-12T03:19:18.519Z,5.07
2018-09-12T03:21:46.378Z,5.03
2018-09-12T03:24:14.334Z,5.90
2018-09-12T03:26:42.166Z,5.10
2018-09-12T03:29:10.120Z,5.60
2018-09-12T03:31:37.940Z,6.63
2018-09-12T03:34:05.892Z,5.47
2018-09-12T03:36:33.730Z,5.50
2018-09-12T03:39:01.605Z,5.40
2018-09-12T03:41:29.440Z,5.53
2018-09-12T03:43:57.256Z,5.10
2018-09-12T03:46:25.079Z,5.20
2018-09-12T03:48:52.990Z,5.50
2018-09-12T03:51:20.821Z,5.63
2018-09-12T03:53:48.655Z,5.50
2018-09-12T03:56:16.492Z,5.40
2018-09-12T03:58:44.349Z,5.43
2018-09-12T04:01:12.199Z,5.30
2018-09-12T04:03:40.030Z,5.30
2018-09-12T04:06:07.990Z,5.63
2018-09-12T04:08:35.811Z,5.70
2018-09-12T04:11:03.653Z,4.97
2018-09-12T04:13:31.507Z,5.90
2018-09-12T04:15:59.327Z,5.43
2018-09-12T04:18:27.157Z,5.77
2018-09-12T04:20:55.116Z,5.90
2018-09-12T04:23:22.981Z,5.47
2018-09-12T04:25:50.810Z,5.70
2018-09-12T04:28:18.669Z,5.70
2018-09-12T04:30:46.500Z,5.90
2018-09-12T04:33:14.307Z,5.37
2018-09-12T04:35:42.137Z,5.33
2018-09-12T04:38:10.335Z,6.10
2018-09-12T04:40:38.156Z,5.60
2018-09-12T04:43:06.835Z,5.60
2018-09-12T04:45:34.659Z,5.80
2018-09-12T04:48:02.751Z,5.73
2018-09-12T04:50:30.578Z,5.93
2018-09-12T04:52:58.456Z,5.47
2018-09-12T04:55:26.283Z,5.90
2018-09-12T04:57:54.106Z,5.33
2018-09-12T05:00:21.956Z,5.70
2018-09-12T05:02:49.833Z,6.50
2018-09-12T05:05:17.701Z,5.97
2018-09-12T05:07:45.576Z,6.43
2018-09-12T05:10:13.666Z,5.40
2018-09-12T05:12:41.646Z,6.33
2018-09-12T05:15:09.488Z,5.77
2018-09-12T05:17:37.364Z,6.20
2018-09-12T05:20:05.256Z,6.50
2018-09-12T05:22:33.327Z,6.73
2018-09-12T05:25:01.177Z,6.67
2018-09-12T05:27:29.011Z,6.63
2018-09-12T05:29:56.827Z,6.63
2018-09-12T05:32:24.664Z,7.00
2018-09-12T05:34:52.479Z,6.13
2018-09-12T05:37:20.307Z,6.73
2018-09-12T05:39:48.190Z,7.00
2018-09-12T05:42:16.588Z,6.50
2018-09-12T05:44:44.531Z,6.10
2018-09-12T05:47:12.446Z,7.07
2018-09-12T05:49:40.397Z,6.47
2018-09-12T05:52:08.344Z,6.43
2018-09-12T05:54:36.369Z,6.17
2018-09-12T05:57:04.405Z,6.80
2018-09-12T05:59:32.300Z,6.87
2018-09-12T06:02:00.173Z,7.63
2018-09-12T06:04:28.090Z,8.07
2018-09-12T06:06:56.130Z,7.90
2018-09-12T06:09:23.922Z,7.93
2018-09-12T06:11:51.906Z,7.30
2018-09-12T06:14:19.970Z,7.63
2018-09-12T06:16:47.800Z,7.10
2018-09-12T06:19:15.618Z,7.37
2018-09-12T06:21:43.483Z,7.53
2018-09-12T06:24:11.337Z,7.30
2018-09-12T06:26:39.367Z,7.80
2018-09-12T06:29:07.197Z,7.17
2018-09-12T06:31:35.024Z,7.90
2018-09-12T06:34:02.863Z,7.20
2018-09-12T06:36:30.701Z,7.83
2018-09-12T06:38:58.542Z,7.07
2018-09-12T06:41:27.366Z,7.23
2018-09-12T06:43:55.238Z,7.20
2018-09-12T06:46:23.220Z,6.97
2018-09-12T06:48:51.035Z,6.97
2018-09-12T06:51:18.855Z,7.07
2018-09-12T06:53:46.731Z,8.03
2018-09-12T06:56:14.771Z,6.73
2018-09-12T06:58:42.613Z,6.47
2018-09-12T07:01:11.063Z,6.97
2018-09-12T07:03:39.234Z,7.87
2018-09-12T07:06:07.082Z,6.73
2018-09-12T07:08:34.894Z,7.10
2018-09-12T07:11:02.716Z,9.13
2018-09-12T07:13:30.564Z,9.67
2018-09-12T07:15:58.419Z,5.87
2018-09-12T07:18:26.386Z,5.37
2018-09-12T07:20:54.274Z,6.07
2018-09-12T07:23:22.090Z,6.83
2018-09-12T07:25:49.911Z,6.37
2018-09-12T07:28:17.734Z,10.40
2018-09-12T07:30:45.564Z,6.30
2018-09-12T07:33:13.407Z,6.87
2018-09-12T07:35:41.339Z,5.83
2018-09-12T07:38:09.159Z,7.60
2018-09-12T07:40:37.002Z,9.40
2018-09-12T07:43:04.859Z,7.53
2018-09-12T07:45:32.719Z,5.90
2018-09-12T07:48:00.682Z,5.60
2018-09-12T07:50:28.672Z,5.40
2018-09-12T07:52:56.524Z,5.37
2018-09-12T07:55:24.370Z,6.17
2018-09-12T07:57:52.190Z,5.20
2018-09-12T08:00:20.036Z,4.90
2018-09-12T08:02:47.865Z,5.50
2018-09-12T08:05:15.737Z,5.50
2018-09-12T08:07:43.584Z,5.10
2018-09-12T08:10:11.403Z,4.90
2018-09-12T08:12:39.267Z,5.80
2018-09-12T08:15:07.193Z,5.40
2018-09-12T08:17:35.084Z,5.53
2018-09-12T08:20:02.926Z,5.17
2018-09-12T08:22:30.787Z,5.63
2018-09-12T08:24:58.625Z,6.40
2018-09-12T08:27:26.727Z,5.27
2018-09-12T08:29:54.656Z,5.50
2018-09-12T08:32:22.523Z,5.40
2018-09-12T08:34:50.354Z,5.03
2018-09-12T08:37:18.241Z,4.50
2018-09-12T08:39:46.072Z,5.23
2018-09-12T08:42:13.911Z,4.40
2018-09-12T08:44:41.765Z,4.63
2018-09-12T08:47:09.616Z,5.53
2018-09-12T08:49:37.475Z,5.47
2018-09-12T08:52:05.352Z,5.40
2018-09-12T08:54:33.496Z,5.87
2018-09-12T08:57:01.336Z,6.30
2018-09-12T08:59:29.187Z,7.07
2018-09-12T09:01:57.025Z,5.63
2018-09-12T09:04:24.855Z,8.63
2018-09-12T09:06:52.719Z,8.37
2018-09-12T09:09:20.560Z,4.87
2018-09-12T09:11:48.391Z,4.93
2018-09-12T09:14:16.286Z,4.67
2018-09-12T09:16:44.124Z,4.50
2018-09-12T09:19:11.946Z,4.53
2018-09-12T09:21:39.780Z,4.83
2018-09-12T09:24:07.620Z,5.13
2018-09-12T09:26:36.038Z,6.10
2018-09-12T09:29:03.895Z,6.53
2018-09-12T09:31:31.747Z,5.97
2018-09-12T09:33:59.588Z,5.20
2018-09-12T09:36:27.415Z,4.60
2018-09-12T09:38:55.245Z,4.40
2018-09-12T09:41:23.106Z,7.10
2018-09-12T09:43:50.953Z,6.10
2018-09-12T09:46:18.788Z,4.10
2018-09-12T09:48:47.006Z,3.90
2018-09-12T09:51:14.834Z,4.70
2018-09-12T09:53:42.784Z,4.57
2018-09-12T09:56:10.702Z,5.13
2018-09-12T09:58:38.604Z,4.00
2018-09-12T10:01:11.493Z,4.93
2018-09-12T10:03:44.517Z,4.10
2018-09-12T10:06:17.502Z,4.23
2018-09-12T10:08:50.456Z,3.70
2018-09-12T10:11:18.439Z,3.40
2018-09-12T10:13:46.286Z,3.37
2018-09-12T10:16:14.216Z,3.50
2018-09-12T10:18:42.102Z,3.70
2018-09-12T10:21:09.966Z,3.60
2018-09-12T10:23:37.780Z,3.63
2018-09-12T10:26:05.600Z,3.10
2018-09-12T10:28:33.449Z,3.50
2018-09-12T10:31:01.317Z,3.47
2018-09-12T10:33:29.160Z,3.80
2018-09-12T10:35:56.982Z,3.13
2018-09-12T10:38:24.829Z,2.97
2018-09-12T10:40:52.688Z,3.50
2018-09-12T10:43:20.527Z,3.60
2018-09-12T10:45:48.367Z,3.60
2018-09-12T10:48:16.176Z,3.30
2018-09-12T10:50:44.170Z,3.37
2018-09-12T10:53:12.209Z,3.40
2018-09-12T10:55:40.051Z,3.10
2018-09-12T10:58:07.895Z,2.93
2018-09-12T11:00:35.840Z,3.20
2018-09-12T11:03:03.797Z,3.00
2018-09-12T11:05:31.609Z,3.87
2018-09-12T11:07:59.432Z,3.27
2018-09-12T11:10:27.291Z,2.80
2018-09-12T11:12:55.169Z,3.23
2018-09-12T11:15:23.108Z,2.60
2018-09-12T11:17:50.924Z,2.90
2018-09-12T11:20:18.751Z,2.83
2018-09-12T11:22:46.644Z,2.80
2018-09-12T11:25:14.473Z,3.53
2018-09-12T11:27:42.336Z,3.50
2018-09-12T11:30:10.174Z,2.90
2018-09-12T11:32:37.991Z,3.20
2018-09-12T11:35:06.258Z,2.80
2018-09-12T11:37:34.219Z,3.10
2018-09-12T11:40:02.078Z,2.33
2018-09-12T11:42:29.936Z,4.57
2018-09-12T11:44:57.810Z,3.20
2018-09-12T11:47:25.637Z,3.83
2018-09-12T11:49:53.576Z,3.63
2018-09-12T11:52:21.430Z,4.40
2018-09-12T11:54:49.267Z,4.27
2018-09-12T11:57:17.082Z,3.80
2018-09-12T11:59:44.942Z,4.73
2018-09-12T12:02:12.793Z,3.20
2018-09-12T12:04:40.647Z,3.17
2018-09-12T12:07:08.892Z,5.03
2018-09-12T12:09:36.914Z,3.00
2018-09-12T12:12:04.739Z,2.83
2018-09-12T12:14:32.556Z,2.90
2018-09-12T12:17:00.384Z,2.00
2018-09-12T12:19:28.220Z,2.77
2018-09-12T12:21:56.062Z,2.87
2018-09-12T12:24:23.891Z,2.47
2018-09-12T12:26:51.768Z,3.40
2018-09-12T12:29:19.567Z,2.70
2018-09-12T12:31:47.399Z,2.47
2018-09-12T12:34:15.219Z,2.77
2018-09-12T12:36:43.040Z,2.33
2018-09-12T12:39:12.312Z,2.60
2018-09-12T12:41:40.193Z,2.27
2018-09-12T12:44:08.031Z,6.00
2018-09-12T12:46:35.895Z,3.70
2018-09-12T12:49:03.739Z,3.53
2018-09-12T12:51:31.673Z,3.23
2018-09-12T12:53:59.491Z,3.70
2018-09-12T12:56:27.329Z,3.03
2018-09-12T12:58:55.223Z,3.63
2018-09-12T13:01:23.651Z,4.13
2018-09-12T13:03:51.464Z,3.20
2018-09-12T13:06:19.313Z,2.43
2018-09-12T13:08:47.151Z,3.60
2018-09-12T13:11:15.057Z,3.23
2018-09-12T13:13:42.920Z,3.33
2018-09-12T13:16:10.750Z,3.50
2018-09-12T13:18:38.628Z,3.77
2018-09-12T13:21:06.464Z,3.23
2018-09-12T13:23:34.510Z,2.80
2018-09-12T13:26:02.364Z,2.37
2018-09-12T13:28:30.207Z,5.43
2018-09-12T13:30:58.125Z,3.23
2018-09-12T13:33:25.953Z,2.40
2018-09-12T13:35:53.819Z,3.33
2018-09-12T13:38:21.731Z,2.60
2018-09-12T13:40:49.542Z,3.37
2018-09-12T13:43:17.416Z,2.40
2018-09-12T13:45:45.279Z,2.40
2018-09-12T13:48:13.108Z,2.87
2018-09-12T13:50:40.927Z,2.43
2018-09-12T13:53:08.767Z,10.23
2018-09-12T13:55:36.743Z,4.73
2018-09-12T13:58:04.607Z,6.07
2018-09-12T14:00:32.551Z,3.10
2018-09-12T14:03:02.037Z,2.30
2018-09-12T14:05:30.270Z,2.27
2018-09-12T14:07:58.118Z,2.00
2018-09-12T14:10:25.950Z,1.87
2018-09-12T14:12:53.779Z,2.13
2018-09-12T14:15:22.394Z,1.80
2018-09-12T14:17:50.519Z,1.73
2018-09-12T14:20:18.398Z,2.20
2018-09-12T14:22:46.369Z,2.20
2018-09-12T14:25:14.721Z,1.90
2018-09-12T14:27:42.701Z,2.00
2018-09-12T14:30:10.550Z,1.93
2018-09-12T14:32:38.389Z,1.93
2018-09-12T14:35:06.272Z,2.53
2018-09-12T14:37:34.196Z,2.50
2018-09-12T14:40:02.066Z,1.90
2018-09-12T14:42:30.068Z,2.40
2018-09-12T14:44:57.959Z,2.07
2018-09-12T14:47:25.850Z,1.90
2018-09-12T14:49:54.045Z,2.10
2018-09-12T14:52:21.870Z,2.37
2018-09-12T14:54:49.697Z,2.63
2018-09-12T14:57:17.582Z,2.70
2018-09-12T14:59:45.507Z,2.50
2018-09-12T15:02:13.372Z,2.63
2018-09-12T15:04:41.331Z,2.40
2018-09-12T15:07:09.250Z,2.03
2018-09-12T15:09:37.098Z,2.40
2018-09-12T15:12:05.002Z,2.87
2018-09-12T15:14:32.840Z,2.27
2018-09-12T15:17:00.668Z,2.40
2018-09-12T15:19:28.664Z,2.23
2018-09-12T15:21:56.561Z,2.47
2018-09-12T15:24:24.625Z,3.03
2018-09-12T15:26:52.883Z,2.53
2018-09-12T15:29:20.696Z,2.73
2018-09-12T15:31:48.664Z,2.67
2018-09-12T15:34:16.498Z,2.37
2018-09-12T15:36:44.397Z,2.30
2018-09-12T15:39:12.895Z,2.43
2018-09-12T15:41:41.043Z,2.07
2018-09-12T15:44:09.081Z,2.60
2018-09-12T15:46:36.920Z,2.10
2018-09-12T15:49:04.834Z,2.00
2018-09-12T15:51:32.715Z,2.43
2018-09-12T15:54:00.541Z,2.50
2018-09-12T15:56:28.811Z,2.77
2018-09-12T15:58:56.652Z,2.40
2018-09-12T16:01:24.477Z,2.30
2018-09-12T16:03:52.509Z,2.27
2018-09-12T16:06:21.141Z,2.30
2018-09-12T16:08:49.067Z,2.80
2018-09-12T16:11:17.598Z,2.27
2018-09-12T16:13:45.436Z,2.53
2018-09-12T16:16:13.276Z,2.43
2018-09-12T16:18:41.127Z,2.40
2018-09-12T16:21:08.968Z,2.60
2018-09-12T16:23:37.040Z,2.77
2018-09-12T16:26:04.879Z,2.80
2018-09-12T16:28:32.721Z,2.60
2018-09-12T16:31:00.701Z,2.33
2018-09-12T16:33:29.536Z,2.33
2018-09-12T16:35:58.170Z,2.70
2018-09-12T16:38:25.993Z,2.40
2018-09-12T16:40:53.838Z,2.80
2018-09-12T16:43:21.661Z,2.83
2018-09-12T16:45:49.475Z,2.70
2018-09-12T16:48:18.720Z,3.17
2018-09-12T16:50:46.588Z,3.20
2018-09-12T16:53:14.597Z,2.33
2018-09-12T16:55:42.468Z,2.73
2018-09-12T17:03:16.567Z,2.50
2018-09-12T17:05:44.394Z,3.07
2018-09-12T17:08:12.214Z,2.93
2018-09-12T17:10:40.370Z,3.47
2018-09-12T17:13:08.194Z,2.53
2018-09-12T17:15:36.086Z,2.40
2018-09-12T17:18:03.920Z,2.90
2018-09-12T17:20:31.814Z,3.00
2018-09-12T17:22:59.676Z,2.87
2018-09-12T17:25:27.571Z,3.10
2018-09-12T17:27:55.477Z,3.03
2018-09-12T17:30:24.064Z,3.47
2018-09-12T17:32:51.906Z,2.97
2018-09-12T17:35:19.753Z,2.70
2018-09-12T17:37:47.590Z,3.00
2018-09-12T17:40:15.429Z,3.40
2018-09-12T17:42:44.296Z,2.70
2018-09-12T17:45:12.181Z,2.97
2018-09-12T17:47:41.040Z,3.23
2018-09-12T17:50:09.575Z,3.33
2018-09-12T17:52:37.750Z,2.70
2018-09-12T17:55:06.739Z,2.63
2018-09-12T17:57:35.522Z,3.10
2018-09-12T18:00:04.155Z,3.23
2018-09-12T18:02:32.726Z,2.90
2018-09-12T18:05:01.887Z,3.27
2018-09-12T18:07:30.545Z,3.40
2018-09-12T18:15:27.154Z,3.10
2018-09-12T18:17:55.869Z,3.00
2018-09-12T18:20:24.178Z,3.37
2018-09-12T18:22:52.491Z,4.27
2018-09-12T18:25:21.093Z,3.43
2018-09-12T18:27:50.202Z,3.43
2018-09-12T18:30:19.677Z,3.30
2018-09-12T18:32:48.272Z,3.27
2018-09-12T18:35:16.813Z,3.80
2018-09-12T18:37:45.210Z,3.23
2018-09-12T18:40:13.711Z,3.23
2018-09-12T18:42:42.908Z,3.73
2018-09-12T18:45:11.578Z,3.60
2018-09-12T18:47:41.037Z,3.40
2018-09-12T18:50:09.374Z,3.03
2018-09-12T18:52:37.847Z,3.73
2018-09-12T18:55:06.268Z,4.00
2018-09-12T18:57:34.515Z,3.60
2018-09-12T19:00:03.146Z,3.13
2018-09-12T19:02:35.522Z,3.17
2018-09-12T19:05:05.316Z,3.33
2018-09-12T19:07:33.612Z,2.97
2018-09-12T19:10:02.265Z,3.20
2018-09-12T19:12:30.639Z,3.63
2018-09-12T19:14:59.098Z,4.00
2018-09-12T19:17:27.885Z,3.33
2018-09-12T19:19:57.150Z,3.37
2018-09-12T19:22:25.633Z,3.90
2018-09-12T19:24:55.012Z,3.93
2018-09-12T19:27:23.676Z,4.03
2018-09-12T19:29:52.325Z,3.73
2018-09-12T19:32:21.053Z,3.67
2018-09-12T19:34:49.973Z,4.27
2018-09-12T19:37:18.644Z,3.70
2018-09-12T19:39:47.677Z,3.67
2018-09-12T19:42:16.064Z,3.90
2018-09-12T19:44:47.013Z,4.17
2018-09-12T19:47:15.536Z,3.73
2018-09-12T19:49:43.964Z,3.63
2018-09-12T19:52:12.766Z,4.23
2018-09-12T19:54:42.460Z,4.10
2018-09-12T19:57:11.080Z,3.80
2018-09-12T19:59:39.691Z,3.57
2018-09-12T20:02:09.389Z,4.77
2018-09-12T20:04:38.458Z,4.00
2018-09-12T20:07:08.200Z,3.83
2018-09-12T20:09:37.551Z,3.83
2018-09-12T20:12:06.503Z,4.53
2018-09-12T20:14:37.212Z,4.27
2018-09-12T20:17:05.830Z,3.87
2018-09-12T20:19:34.281Z,4.00
2018-09-12T20:22:02.957Z,4.07
2018-09-12T20:24:31.331Z,4.10
2018-09-12T20:26:59.965Z,4.70
2018-09-12T20:29:28.195Z,3.67
2018-09-12T20:31:56.683Z,3.73
2018-09-12T20:34:25.134Z,3.93
2018-09-12T20:36:53.740Z,4.23
2018-09-12T20:39:22.649Z,4.57
2018-09-12T20:41:51.312Z,4.00
2018-09-12T20:44:19.861Z,4.10
2018-09-12T20:46:48.254Z,3.90
2018-09-12T20:49:16.549Z,3.83
2018-09-12T20:51:45.872Z,4.07
2018-09-12T20:54:16.595Z,3.87
2018-09-12T20:56:45.940Z,3.70
2018-09-12T20:59:14.484Z,4.20
2018-09-12T21:01:43.058Z,3.50
2018-09-12T21:04:11.866Z,3.77
2018-09-12T21:06:40.333Z,3.40
2018-09-12T21:09:09.228Z,3.23
2018-09-12T21:11:37.956Z,3.57
2018-09-12T21:14:06.428Z,3.20
2018-09-12T21:16:34.870Z,3.10
2018-09-12T21:19:03.523Z,3.47
2018-09-12T21:21:32.127Z,3.17
2018-09-12T21:24:00.599Z,3.10
2018-09-12T21:26:29.203Z,2.80
2018-09-12T21:28:57.847Z,3.20
2018-09-12T21:31:26.304Z,3.00
2018-09-12T21:33:54.921Z,2.70
2018-09-12T21:36:23.559Z,3.30
2018-09-12T21:38:52.387Z,3.17
2018-09-12T21:41:20.983Z,2.50
2018-09-12T21:43:49.854Z,2.67
2018-09-12T21:46:18.293Z,3.03
2018-09-12T21:48:46.756Z,2.83
2018-09-12T21:51:14.999Z,2.60
2018-09-12T21:53:43.632Z,3.73
2018-09-12T21:56:12.232Z,2.57
2018-09-12T21:58:40.475Z,2.30
2018-09-12T22:01:08.721Z,2.53
2018-09-12T22:03:36.964Z,2.53
2018-09-12T22:06:05.203Z,2.87
2018-09-12T22:08:33.750Z,2.60
2018-09-12T22:11:02.315Z,3.03
2018-09-12T22:13:30.946Z,2.40
2018-09-12T22:15:59.899Z,2.93
2018-09-12T22:18:28.427Z,2.63
2018-09-12T22:20:56.856Z,2.27
2018-09-12T22:23:25.508Z,2.23
2018-09-12T22:25:54.309Z,2.20
2018-09-12T22:28:22.773Z,2.23
2018-09-12T22:30:51.407Z,2.77
2018-09-12T22:33:20.040Z,2.30
2018-09-12T22:35:48.498Z,3.10
2018-09-12T22:38:16.935Z,2.80
2018-09-12T22:40:45.334Z,2.53
2018-09-12T22:43:13.566Z,2.90
2018-09-12T22:45:41.814Z,2.50
2018-09-12T22:48:10.703Z,3.30
2018-09-12T22:50:39.315Z,2.63
2018-09-12T22:53:07.763Z,2.50
2018-09-12T22:55:36.409Z,2.87
2018-09-12T22:58:05.028Z,2.60
2018-09-12T23:00:33.679Z,2.70
2018-09-12T23:03:02.147Z,2.77
2018-09-12T23:05:30.527Z,3.00
2018-09-12T23:07:59.017Z,2.73
2018-09-12T23:10:27.639Z,3.07
2018-09-12T23:12:56.265Z,2.63
2018-09-12T23:15:24.940Z,2.83
2018-09-12T23:17:53.308Z,2.90
2018-09-12T23:20:21.597Z,3.37
2018-09-12T23:22:50.212Z,2.87
2018-09-12T23:25:18.651Z,3.17
2018-09-12T23:27:47.093Z,2.90
2018-09-12T23:30:15.726Z,2.70
2018-09-12T23:32:44.173Z,2.70
2018-09-12T23:35:12.580Z,3.13
2018-09-12T23:37:40.854Z,3.37
2018-09-12T23:40:09.664Z,3.10
2018-09-12T23:42:38.119Z,2.50
2018-09-12T23:45:06.782Z,2.50
2018-09-12T23:47:35.167Z,3.07
2018-09-12T23:50:03.687Z,3.03
2018-09-12T23:52:32.576Z,2.87
2018-09-12T23:55:01.144Z,3.30
2018-09-12T23:57:29.751Z,2.50
2018-09-12T23:59:58.382Z,2.97
